METAR AND TAF INFORMATION
METAR FOR LICR
ADDS - METARS form results

(0442 UTC 26 February 2020)
Data provider http://aviationweather.gov/metar/data/
 
Forecast for: LICR (REGGIO CALABRIA , IT)
Text: TAF LICR 251700Z 2518/2618 35010KT 9999 SCT030
Forecast period: 1800 UTC 25 February 2020 to 1800 UTC 26 February 2020
Forecast type: FROM: standard forecast or significant change
Winds: from the N (350 degrees) at 12 MPH (10 knots; 5.1 m/s)
Visibility: 6 or more miles 10+ km)
Ceiling: at least 12,000 feet AGL
Clouds: scattered clouds at 3000 feet AGL
Weather: no significant weather forecast for this period

 AIRPORT MAP

 RUNWAY INFORMATION
Runway 11 Runway length 5574 ft Runway width 148 ft
Runway elevation 38 ft Runway displaced threshold 0 ft Runway heading 113
Runway 29 Runway length 5574 ft Runway width 148 ft
Runway elevation 43 ft Runway displaced threshold 0 ft Runway heading 293
Runway 15 Runway length 6549 ft Runway width 148 ft
Runway elevation 84 ft Runway displaced threshold 840 ft Runway heading 153
Runway 33 Runway length 6549 ft Runway width 148 ft
Runway elevation 34 ft Runway displaced threshold 164 ft Runway heading 333

 AIRPORT FREQUENCIES
Type APP Name APP Frequency 120.275 MHZ
Type TWR Name TWR Frequency 118.25 MHZ

 AIRPORT NEAR NAVIGATION AIDS
Type VOR-DME Name Reggio Calabria Frequency 111000 KHZ
Type NDB Name Reggio Calabria Frequency 325 KHZ



Powered by Virtual Airlines Manager [v2.6.2]